Time;durP1;ratioP1;P1;durP2;ratioP2;P2;SDS_P1;SDS_P2;PMS_P1;PMS_P2;Temp;Humidity;BMP_temperature;BMP_pressure;BME280_temperature;BME280_humidity;BME280_pressure;Samples;Min_cycle;Max_cycle;Signal;HPM_P1;HPM_P2
2022/03/02 00:03:21;;;;;;;6.93;4.82;;;;;;;-0.49;100.00;99407.31;10349615;28;20046;-58
2022/03/02 00:08:24;;;;;;;6.40;4.43;;;;;;;-0.59;100.00;99395.41;10335050;28;20046;-57
2022/03/02 00:13:28;;;;;;;5.90;4.57;;;;;;;-0.70;100.00;99398.50;10349373;28;20141;-56
2022/03/02 00:18:32;;;;;;;5.38;4.43;;;;;;;-0.79;100.00;99395.34;10338712;28;20049;-56
2022/03/02 00:23:35;;;;;;;5.43;4.50;;;;;;;-0.86;100.00;99388.59;10325533;28;20049;-57
2022/03/02 00:28:38;;;;;;;7.03;4.40;;;;;;;-0.91;100.00;99379.97;10334667;28;20104;-57
2022/03/02 00:33:43;;;;;;;5.63;4.00;;;;;;;-0.94;100.00;99385.38;10332365;28;20429;-55
2022/03/02 00:38:46;;;;;;;4.65;3.90;;;;;;;-0.95;100.00;99370.47;10330294;28;20540;-57
2022/03/02 00:43:49;;;;;;;4.82;3.92;;;;;;;-0.94;100.00;99365.09;10334563;28;20410;-54
2022/03/02 00:48:54;;;;;;;5.63;4.20;;;;;;;-0.93;100.00;99372.13;10332164;28;20505;-57
2022/03/02 00:53:59;;;;;;;4.80;3.67;;;;;;;-0.94;100.00;99378.31;10343500;28;20050;-56
2022/03/02 00:59:02;;;;;;;5.28;3.60;;;;;;;-0.99;100.00;99371.50;10344709;28;20070;-59
2022/03/02 01:04:07;;;;;;;6.50;4.20;;;;;;;-1.04;100.00;99369.06;10356055;28;20046;-56
2022/03/02 01:09:10;;;;;;;7.13;4.25;;;;;;;-1.09;100.00;99363.97;10332349;28;20772;-55
2022/03/02 01:14:13;;;;;;;5.05;4.10;;;;;;;-1.10;100.00;99359.59;10348351;28;20133;-58
2022/03/02 01:19:17;;;;;;;5.93;4.47;;;;;;;-1.11;100.00;99357.88;10350469;28;20133;-56
2022/03/02 01:24:20;;;;;;;5.45;4.10;;;;;;;-1.13;100.00;99356.25;10335327;28;20105;-59
2022/03/02 01:29:24;;;;;;;6.82;4.35;;;;;;;-1.11;100.00;99343.78;10332568;28;20488;-56
2022/03/02 01:34:28;;;;;;;5.63;4.20;;;;;;;-1.13;100.00;99338.56;10343861;28;20074;-57
2022/03/02 01:39:36;;;;;;;6.00;4.20;;;;;;;-1.19;100.00;99340.59;10361084;28;20134;-60
2022/03/02 01:44:39;;;;;;;5.63;4.47;;;;;;;-1.24;100.00;99332.88;10243440;29;21130;-57
2022/03/02 01:49:44;;;;;;;5.60;4.10;;;;;;;-1.27;100.00;99331.22;10249378;28;20051;-54
2022/03/02 01:54:47;;;;;;;6.03;4.03;;;;;;;-1.32;100.00;99330.53;10248109;29;20463;-56
2022/03/02 02:00:16;;;;;;;7.43;4.40;;;;;;;-1.38;100.00;99320.25;10254928;28;20051;-58
2022/03/02 02:05:21;;;;;;;6.32;4.45;;;;;;;-1.45;100.00;99317.00;10248395;29;20134;-56
2022/03/02 02:10:24;;;;;;;5.65;4.10;;;;;;;-1.51;100.00;99305.81;10247095;28;20121;-58
2022/03/02 02:15:27;;;;;;;5.18;4.30;;;;;;;-1.55;100.00;99291.88;10247713;28;20043;-57
2022/03/02 02:20:35;;;;;;;9.52;4.25;;;;;;;-1.60;100.00;99289.41;10247140;28;20127;-59
2022/03/02 02:25:39;;;;;;;7.05;4.65;;;;;;;-1.60;100.00;99286.78;10262890;28;20039;-60
2022/03/02 02:30:43;;;;;;;5.60;4.72;;;;;;;-1.60;100.00;99280.59;10244841;28;20044;-57
2022/03/02 02:35:48;;;;;;;5.97;4.72;;;;;;;-1.65;100.00;99269.38;10243012;28;20055;-59
2022/03/02 02:40:51;;;;;;;5.40;4.05;;;;;;;-1.64;100.00;99277.25;10261167;28;20130;-58
2022/03/02 02:45:55;;;;;;;4.82;4.15;;;;;;;-1.60;100.00;99264.75;10246300;29;20122;-59
2022/03/02 02:51:00;;;;;;;5.10;4.28;;;;;;;-1.58;100.00;99269.03;10245951;28;20562;-60
2022/03/02 02:56:03;;;;;;;7.47;4.82;;;;;;;-1.58;100.00;99261.13;10246355;29;20049;-59
2022/03/02 03:01:07;;;;;;;8.32;4.57;;;;;;;-1.58;100.00;99257.63;10246350;28;20079;-60
2022/03/02 03:06:13;;;;;;;8.32;4.38;;;;;;;-1.58;100.00;99257.63;10244416;28;20047;-60
2022/03/02 03:11:19;;;;;;;5.68;4.38;;;;;;;-1.61;100.00;99261.28;10245576;28;20039;-60
2022/03/02 03:16:23;;;;;;;5.25;4.28;;;;;;;-1.62;100.00;99254.25;10244095;29;20059;-60
2022/03/02 03:21:28;;;;;;;5.20;4.40;;;;;;;-1.64;100.00;99257.88;10244713;28;20047;-60
2022/03/02 03:26:31;;;;;;;5.85;4.60;;;;;;;-1.67;100.00;99253.56;10243428;28;20126;-60
2022/03/02 03:31:34;;;;;;;7.22;4.70;;;;;;;-1.70;100.00;99243.13;10244362;28;20074;-60
2022/03/02 03:36:39;;;;;;;5.40;4.15;;;;;;;-1.72;100.00;99245.84;10243485;28;20047;-59
2022/03/02 03:41:42;;;;;;;5.55;4.35;;;;;;;-1.75;100.00;99235.41;10240736;28;20062;-60
2022/03/02 03:46:45;;;;;;;5.78;4.28;;;;;;;-1.78;100.00;99248.75;10259780;28;20079;-59
2022/03/02 03:51:50;;;;;;;4.72;4.05;;;;;;;-1.79;100.00;99243.50;10244327;28;20035;-60
2022/03/02 03:56:53;;;;;;;7.55;4.40;;;;;;;-1.81;100.00;99248.00;10244713;28;20366;-59
2022/03/02 04:02:03;;;;;;;5.05;4.00;;;;;;;-1.83;100.00;99242.78;10242148;28;20484;-60
2022/03/02 04:07:07;;;;;;;5.53;4.28;;;;;;;-1.82;100.00;99241.03;10243345;29;20641;-58
2022/03/02 04:12:11;;;;;;;6.32;4.47;;;;;;;-1.82;100.00;99246.31;10240156;28;20147;-60
2022/03/02 04:17:14;;;;;;;5.88;4.22;;;;;;;-1.82;100.00;99235.75;10256397;28;20051;-58
2022/03/02 04:22:19;;;;;;;5.50;4.05;;;;;;;-1.82;100.00;99227.81;10244506;28;20048;-59
2022/03/02 04:27:22;;;;;;;5.13;4.03;;;;;;;-1.83;100.00;99226.09;10241274;29;20130;-58
2022/03/02 04:32:25;;;;;;;6.47;4.28;;;;;;;-1.83;100.00;99204.97;10243372;28;20053;-56
2022/03/02 04:37:29;;;;;;;8.35;4.43;;;;;;;-1.84;100.00;99208.53;10244780;28;20052;-57
2022/03/02 04:42:32;;;;;;;5.03;4.10;;;;;;;-1.84;100.00;99203.25;10264898;28;20057;-57
2022/03/02 04:47:35;;;;;;;5.05;4.07;;;;;;;-1.84;100.00;99203.25;10249199;28;20098;-59
2022/03/02 04:52:40;;;;;;;4.78;3.83;;;;;;;-1.87;100.00;99199.78;10261226;28;20047;-56
2022/03/02 04:57:45;;;;;;;5.95;4.53;;;;;;;-1.87;100.00;99198.91;10248173;29;20043;-59
2022/03/02 05:02:48;;;;;;;6.00;4.18;;;;;;;-1.88;100.00;99194.56;10248897;28;20560;-60
2022/03/02 05:07:53;;;;;;;5.25;4.00;;;;;;;-1.88;100.00;99184.00;10250389;29;20122;-60
2022/03/02 05:12:57;;;;;;;5.30;4.22;;;;;;;-1.90;100.00;99184.06;10265010;28;20055;-58
2022/03/02 05:18:00;;;;;;;5.28;4.00;;;;;;;-1.92;100.00;99185.06;10248632;28;20050;-60
2022/03/02 05:23:05;;;;;;;6.47;3.95;;;;;;;-1.96;100.00;99194.91;10249095;28;20051;-59
2022/03/02 05:28:08;;;;;;;7.00;4.25;;;;;;;-1.99;100.00;99186.22;10248064;28;20123;-58
2022/03/02 05:33:11;;;;;;;4.82;4.10;;;;;;;-2.03;100.00;99178.44;10249935;28;20523;-57
2022/03/02 05:38:16;;;;;;;5.50;4.28;;;;;;;-2.06;100.00;99173.28;10250696;29;20039;-59
2022/03/02 05:43:19;;;;;;;5.20;4.28;;;;;;;-2.09;100.00;99169.91;10264469;28;20052;-57
2022/03/02 05:48:22;;;;;;;6.75;4.50;;;;;;;-2.15;100.00;99173.66;10247678;28;20122;-59
2022/03/02 05:53:26;;;;;;;6.57;4.30;;;;;;;-2.16;100.00;99187.78;10247029;28;20051;-59
2022/03/02 05:58:29;;;;;;;4.70;3.95;;;;;;;-2.21;100.00;99189.75;10247668;29;20549;-59
2022/03/02 06:03:58;;;;;;;8.07;4.32;;;;;;;-2.23;100.00;99191.56;10247583;28;20047;-59
2022/03/02 06:09:16;;;;;;;7.10;4.53;;;;;;;-2.27;100.00;99190.84;10263394;28;20050;-59
2022/03/02 06:14:20;;;;;;;7.13;4.90;;;;;;;-2.28;100.00;99202.31;10262803;28;20420;-57
2022/03/02 06:19:23;;;;;;;8.05;4.90;;;;;;;-2.31;100.00;99197.19;10242984;28;20555;-59
2022/03/02 06:24:28;;;;;;;7.07;5.38;;;;;;;-2.31;100.00;99205.09;10247563;28;20666;-58
2022/03/02 06:29:31;;;;;;;8.13;6.07;;;;;;;-2.35;100.00;99211.41;10244306;28;20909;-58
2022/03/02 06:34:34;;;;;;;7.28;5.20;;;;;;;-2.33;100.00;99209.59;10244293;28;20342;-61
2022/03/02 06:39:39;;;;;;;6.75;4.78;;;;;;;-2.31;100.00;99218.31;10246396;28;20047;-57
2022/03/02 06:44:48;;;;;;;7.05;5.10;;;;;;;-2.27;100.00;99219.03;10259367;28;20486;-60
2022/03/02 06:50:04;;;;;;;6.80;5.20;;;;;;;-2.28;100.00;99223.44;10242355;28;20824;-60
2022/03/02 06:55:12;;;;;;;8.02;5.00;;;;;;;-2.22;100.00;99215.28;10259367;28;20142;-61
2022/03/02 07:00:17;;;;;;;6.28;4.88;;;;;;;-2.16;100.00;99224.75;10243254;28;20580;-61
2022/03/02 07:05:21;;;;;;;6.22;4.82;;;;;;;-2.05;100.00;99216.38;10243794;28;20078;-59
2022/03/02 07:10:27;;;;;;;5.60;4.70;;;;;;;-1.93;100.00;99218.53;10243682;28;20672;-60
2022/03/02 07:15:31;;;;;;;5.35;4.40;;;;;;;-1.77;100.00;99220.53;10253843;28;20055;-60
2022/03/02 07:20:39;;;;;;;4.88;4.00;;;;;;;-1.61;100.00;99226.03;10254038;28;20126;-59
2022/03/02 07:25:45;;;;;;;7.28;4.82;;;;;;;-1.46;100.00;99217.47;10249914;28;20041;-57
2022/03/02 07:30:49;;;;;;;6.47;4.88;;;;;;;-1.30;100.00;99217.66;10267031;28;20143;-58
2022/03/02 07:35:57;;;;;;;6.97;5.05;;;;;;;-1.20;100.00;99220.78;10259148;28;20034;-58
2022/03/02 07:41:05;;;;;;;7.22;5.32;;;;;;;-1.12;100.00;99213.34;10285576;23;20105;-85
2022/03/02 07:46:10;;;;;;;7.88;4.93;;;;;;;-0.98;100.00;99218.03;10396677;28;20084;-84
2022/03/02 07:51:16;;;;;;;8.80;4.82;;;;;;;-0.90;100.00;99198.31;10427696;28;20042;-84
2022/03/02 07:56:21;;;;;;;5.88;4.63;;;;;;;-0.80;100.00;99195.16;10371397;23;20110;-63
2022/03/02 08:01:25;;;;;;;4.82;4.00;;;;;;;-0.70;100.00;99206.19;10341278;28;20117;-63
2022/03/02 08:06:28;;;;;;;5.43;4.07;;;;;;;-0.60;100.00;99204.00;10349395;28;20069;-64
2022/03/02 08:11:34;;;;;;;6.03;4.43;;;;;;;-0.53;100.00;99202.75;10341317;28;20080;-63
2022/03/02 08:16:38;;;;;;;4.65;3.80;;;;;;;-0.46;100.00;99206.00;10343369;28;20046;-63
2022/03/02 08:21:43;;;;;;;4.85;3.92;;;;;;;-0.37;100.00;99197.59;10347215;28;20038;-61
2022/03/02 08:26:49;;;;;;;5.60;3.97;;;;;;;-0.28;100.00;99203.38;10357959;28;20065;-63
2022/03/02 08:31:58;;;;;;;7.63;5.13;;;;;;;-0.20;100.00;99191.50;10350307;28;20042;-62
2022/03/02 08:37:02;;;;;;;6.20;4.55;;;;;;;-0.11;100.00;99197.28;10356765;28;20100;-63
2022/03/02 08:42:08;;;;;;;6.20;4.47;;;;;;;-0.09;100.00;99193.63;10356260;28;20500;-63
2022/03/02 08:47:11;;;;;;;6.35;3.78;;;;;;;0.04;100.00;99185.94;10325171;28;20152;-62
2022/03/02 08:52:14;;;;;;;6.82;4.25;;;;;;;0.19;100.00;99197.56;10338274;28;20058;-63
2022/03/02 08:57:19;;;;;;;4.70;3.88;;;;;;;0.33;100.00;99191.59;10324319;28;20070;-63
2022/03/02 09:02:27;;;;;;;8.32;4.30;;;;;;;0.48;100.00;99186.41;10318331;28;20050;-60
2022/03/02 09:07:30;;;;;;;5.55;4.38;;;;;;;0.69;100.00;99177.38;10324343;28;20050;-62
2022/03/02 09:12:35;;;;;;;6.65;4.18;;;;;;;0.99;100.00;99176.69;10322179;28;20065;-61
2022/03/02 09:17:39;;;;;;;6.68;4.20;;;;;;;1.25;100.00;99176.22;10342348;28;20124;-60
2022/03/02 09:22:42;;;;;;;5.68;4.20;;;;;;;1.37;100.00;99165.78;10327892;28;20034;-60
2022/03/02 09:27:47;;;;;;;5.68;3.80;;;;;;;1.50;100.00;99168.63;10328897;28;20054;-61
2022/03/02 09:32:53;;;;;;;6.78;3.80;;;;;;;1.61;100.00;99157.41;10329275;28;20070;-60
2022/03/02 09:37:56;;;;;;;3.83;3.13;;;;;;;1.66;100.00;99149.16;10334240;28;20077;-60
2022/03/02 09:43:05;;;;;;;5.60;3.60;;;;;;;1.84;100.00;99139.28;10325772;28;20161;-61
2022/03/02 09:48:16;;;;;;;4.63;3.63;;;;;;;1.82;100.00;99136.72;10330392;28;20077;-63
2022/03/02 09:53:23;;;;;;;7.93;4.90;;;;;;;1.87;100.00;99135.59;10329569;28;20123;-63
2022/03/02 09:58:30;;;;;;;5.88;3.90;;;;;;;1.93;100.00;99124.63;10336990;28;20051;-61
2022/03/02 10:03:36;;;;;;;5.30;3.90;;;;;;;2.04;100.00;99132.84;10336825;28;20141;-63
2022/03/02 10:08:48;;;;;;;4.40;3.58;;;;;;;2.12;98.27;99119.06;10342996;28;20129;-62
2022/03/02 10:13:56;;;;;;;5.20;3.70;;;;;;;2.29;100.00;99115.44;10333786;28;20525;-63
2022/03/02 10:19:05;;;;;;;4.75;3.80;;;;;;;2.44;96.38;99118.97;10328936;28;20052;-62
2022/03/02 10:24:13;;;;;;;5.00;3.80;;;;;;;2.54;96.79;99119.25;10328766;28;20069;-62
2022/03/02 10:29:28;;;;;;;5.75;3.97;;;;;;;2.65;92.49;99116.78;10327413;28;20477;-64
2022/03/02 10:34:36;;;;;;;5.68;4.05;;;;;;;2.83;91.84;99109.47;10324187;28;20494;-61
2022/03/02 10:40:05;;;;;;;5.65;4.03;;;;;;;3.03;90.16;99107.41;10324626;28;20133;-60
2022/03/02 10:45:20;;;;;;;4.30;3.63;;;;;;;3.26;84.29;99100.59;10341110;28;20101;-63
2022/03/02 10:50:27;;;;;;;4.78;3.63;;;;;;;3.47;95.13;99102.88;10338564;28;20057;-62
2022/03/02 10:55:31;;;;;;;7.40;4.10;;;;;;;3.72;95.63;99090.56;10327886;28;20076;-63
2022/03/02 11:00:36;;;;;;;4.93;3.58;;;;;;;3.98;90.18;99086.19;10324987;28;20043;-63
2022/03/02 11:05:41;;;;;;;6.45;3.95;;;;;;;4.15;92.92;99077.06;10330261;28;20250;-63
2022/03/02 11:10:57;;;;;;;5.72;4.03;;;;;;;4.37;81.03;99072.91;10340243;28;20046;-63
2022/03/02 11:16:04;;;;;;;4.57;3.50;;;;;;;4.67;82.60;99055.72;10323532;28;20129;-62
2022/03/02 11:21:09;;;;;;;4.47;3.33;;;;;;;4.86;76.35;99057.94;10323052;28;20494;-65
2022/03/02 11:26:16;;;;;;;5.90;3.30;;;;;;;5.25;75.18;99056.88;10330937;28;20046;-65
2022/03/02 11:31:24;;;;;;;5.07;3.53;;;;;;;5.53;73.70;99052.19;10327223;28;20137;-64
2022/03/02 11:36:33;;;;;;;5.57;3.53;;;;;;;5.64;70.23;99045.19;10326116;28;21420;-66
2022/03/02 11:41:37;;;;;;;5.07;3.45;;;;;;;5.87;69.47;99035.47;10323231;28;20066;-67
2022/03/02 11:46:47;;;;;;;5.53;3.47;;;;;;;6.10;66.65;99036.41;10326473;28;20498;-68
2022/03/02 11:52:05;;;;;;;4.40;3.38;;;;;;;6.46;62.79;99021.13;10328042;28;20124;-67
2022/03/02 11:57:10;;;;;;;4.10;3.05;;;;;;;6.74;65.61;99023.44;10330014;28;20100;-63
2022/03/02 12:02:18;;;;;;;5.07;3.00;;;;;;;6.99;56.99;99005.41;10327988;28;20065;-54
2022/03/02 12:07:23;;;;;;;4.80;2.80;;;;;;;7.02;55.84;99010.53;10323147;28;20046;-60
2022/03/02 12:12:27;;;;;;;4.32;3.00;;;;;;;7.15;55.82;99005.91;10330970;28;20065;-56
2022/03/02 12:17:33;;;;;;;5.05;2.88;;;;;;;7.15;55.35;98999.66;10334635;28;20056;-67
2022/03/02 12:22:39;;;;;;;3.63;2.90;;;;;;;7.15;54.25;99005.03;10323724;28;20053;-65
2022/03/02 12:27:48;;;;;;;5.53;2.83;;;;;;;7.39;54.12;98989.59;10325155;28;20058;-65
2022/03/02 12:32:54;;;;;;;3.33;2.72;;;;;;;7.71;53.99;98980.69;10323426;28;20046;-64
2022/03/02 12:38:00;;;;;;;4.20;2.75;;;;;;;7.96;50.20;98980.47;10327330;28;20042;-63
2022/03/02 12:43:17;;;;;;;3.88;2.92;;;;;;;8.07;49.22;98980.41;10324124;28;20042;-64
2022/03/02 12:48:28;;;;;;;3.35;2.70;;;;;;;8.18;50.71;98972.28;10324315;28;20047;-66
2022/03/02 12:53:51;;;;;;;3.08;2.58;;;;;;;8.29;48.36;98957.91;10326482;28;20057;-65
2022/03/02 12:58:56;;;;;;;4.70;2.80;;;;;;;8.44;50.42;98965.63;10323502;28;20054;-64
2022/03/02 13:04:02;;;;;;;4.55;2.72;;;;;;;8.68;47.59;98957.28;10332238;28;20040;-63
2022/03/02 13:09:09;;;;;;;2.80;2.50;;;;;;;8.90;47.72;98950.81;10329891;28;20053;-66
2022/03/02 13:14:34;;;;;;;2.95;2.42;;;;;;;9.04;45.47;98954.13;10334332;28;20085;-65
2022/03/02 13:19:45;;;;;;;3.25;2.50;;;;;;;9.21;46.01;98944.53;10328637;28;20050;-64
2022/03/02 13:24:48;;;;;;;4.38;2.70;;;;;;;9.34;47.08;98941.56;10328739;28;20117;-64
2022/03/02 13:30:07;;;;;;;3.38;2.60;;;;;;;9.23;43.03;98945.22;10327960;28;20039;-62
2022/03/02 13:35:13;;;;;;;4.82;2.80;;;;;;;9.43;43.99;98946.09;10344478;28;20046;-64
2022/03/02 13:40:42;;;;;;;3.38;2.50;;;;;;;9.58;42.58;98943.00;10328647;28;20177;-65
2022/03/02 13:45:47;;;;;;;3.08;2.53;;;;;;;9.73;43.29;98941.56;10351993;28;20057;-65
2022/03/02 13:50:58;;;;;;;4.25;2.53;;;;;;;9.57;41.35;98942.13;10337638;28;20089;-62
2022/03/02 13:56:05;;;;;;;6.15;2.50;;;;;;;9.45;41.49;98930.69;10333716;28;20054;-65
2022/03/02 14:01:14;;;;;;;5.50;2.70;;;;;;;9.65;41.62;98922.59;10329782;28;20044;-67
2022/03/02 14:06:19;;;;;;;3.30;2.53;;;;;;;9.48;40.25;98933.06;10333285;28;20038;-60
2022/03/02 14:11:34;;;;;;;3.15;2.67;;;;;;;9.66;39.77;98929.69;10324007;28;20134;-64
2022/03/02 14:16:38;;;;;;;2.92;2.45;;;;;;;10.08;39.67;98926.63;10333373;28;20409;-68
2022/03/02 14:22:14;;;;;;;5.38;2.50;;;;;;;10.40;38.55;98922.75;10328052;28;20042;-67
2022/03/02 14:27:19;;;;;;;5.25;2.75;;;;;;;10.20;41.40;98916.53;10332587;28;20137;-67
2022/03/02 14:32:31;;;;;;;3.78;2.90;;;;;;;10.31;38.29;98912.78;10328869;28;20510;-70
2022/03/02 14:37:39;;;;;;;4.20;3.25;;;;;;;10.16;43.09;98915.97;10329101;28;20042;-68
2022/03/02 14:42:46;;;;;;;6.43;3.47;;;;;;;9.74;43.73;98913.66;10327780;28;20046;-68
2022/03/02 14:47:53;;;;;;;4.10;3.30;;;;;;;10.06;42.63;98908.91;10327671;28;20125;-67
2022/03/02 14:52:59;;;;;;;6.15;3.40;;;;;;;9.80;42.75;98913.09;10324316;28;20038;-66
2022/03/02 14:58:05;;;;;;;5.15;3.58;;;;;;;9.79;44.02;98900.63;10329368;28;20510;-66
2022/03/02 15:03:16;;;;;;;6.13;3.35;;;;;;;9.51;42.43;98910.44;10324911;28;20066;-68
2022/03/02 15:08:28;;;;;;;3.60;2.83;;;;;;;9.26;42.49;98912.69;10324005;28;20493;-64
2022/03/02 15:19:00;;;;;;;4.10;3.13;;;;;;;9.55;41.80;98907.31;10359964;28;20050;-66
2022/03/02 15:24:05;;;;;;;6.10;2.90;;;;;;;9.67;43.35;98897.22;10359321;28;20045;-63
2022/03/02 15:29:11;;;;;;;3.63;2.70;;;;;;;9.72;43.51;98894.09;10341718;28;20072;-66
2022/03/02 15:34:19;;;;;;;5.57;2.83;;;;;;;9.86;42.14;98882.91;10345982;28;20038;-63
2022/03/02 15:39:25;;;;;;;3.65;2.53;;;;;;;9.70;41.59;98879.97;10330746;28;20043;-66
2022/03/02 15:44:28;;;;;;;3.97;2.67;;;;;;;9.67;43.34;98869.50;10326843;28;20486;-63
2022/03/02 15:49:56;;;;;;;3.08;2.53;;;;;;;9.64;39.83;98872.47;10322948;28;20061;-55
2022/03/02 15:55:01;;;;;;;3.88;2.53;;;;;;;9.42;40.78;98869.09;10311150;28;20137;-56
2022/03/02 16:00:12;;;;;;;4.03;3.17;;;;;;;9.30;41.21;98864.84;10340085;28;20135;-65
2022/03/02 16:05:28;;;;;;;4.22;2.90;;;;;;;9.17;42.90;98859.78;10325002;28;20042;-63
2022/03/02 16:10:33;;;;;;;6.43;3.10;;;;;;;8.89;44.25;98863.13;10325706;28;20109;-67
2022/03/02 16:15:42;;;;;;;4.20;2.50;;;;;;;8.68;43.74;98867.78;10325079;28;20042;-66
2022/03/02 16:20:47;;;;;;;4.88;3.38;;;;;;;8.48;44.09;98875.78;10338387;28;20053;-66
2022/03/02 16:25:54;;;;;;;4.10;3.10;;;;;;;8.18;44.88;98864.03;10328275;28;20038;-66
2022/03/02 16:30:58;;;;;;;4.30;3.28;;;;;;;7.85;44.58;98857.97;10320873;28;20051;-69
2022/03/02 16:36:02;;;;;;;4.47;3.40;;;;;;;7.47;45.13;98860.28;10347404;28;20053;-65
2022/03/02 16:41:26;;;;;;;6.00;3.10;;;;;;;7.09;44.21;98854.53;10326474;28;20050;-65
2022/03/02 16:46:29;;;;;;;3.47;3.13;;;;;;;6.86;45.85;98851.06;10347967;28;20053;-66
2022/03/02 16:51:33;;;;;;;5.75;2.95;;;;;;;6.47;44.63;98859.56;10337490;28;20824;-62
2022/03/02 16:56:37;;;;;;;6.00;3.78;;;;;;;6.15;44.58;98864.81;10332708;28;20506;-61
2022/03/02 17:01:41;;;;;;;5.18;3.10;;;;;;;5.85;44.67;98869.75;10334297;28;20062;-65
2022/03/02 17:06:47;;;;;;;8.98;8.07;;;;;;;5.59;45.32;98868.25;10336598;28;20065;-64
2022/03/02 17:11:52;;;;;;;15.38;12.15;;;;;;;5.25;46.36;98874.38;10335053;28;20043;-66
2022/03/02 17:16:55;;;;;;;11.10;7.20;;;;;;;5.01;47.04;98877.06;10333625;28;20097;-66
2022/03/02 17:21:59;;;;;;;7.75;5.50;;;;;;;4.78;47.80;98871.63;10329480;28;20101;-66
2022/03/02 17:27:04;;;;;;;6.72;4.57;;;;;;;4.56;48.29;98878.53;10333794;28;20042;-66
2022/03/02 17:32:11;;;;;;;7.15;5.35;;;;;;;4.40;49.41;98883.28;10345642;28;20046;-63
2022/03/02 17:37:14;;;;;;;7.38;4.30;;;;;;;4.25;50.58;98880.75;10331023;28;20046;-64
2022/03/02 17:42:19;;;;;;;8.38;5.82;;;;;;;4.11;50.89;98881.75;10331306;28;20037;-64
2022/03/02 17:47:22;;;;;;;10.00;7.15;;;;;;;4.00;51.68;98869.16;10349890;28;20085;-69
2022/03/02 17:52:25;;;;;;;9.57;6.75;;;;;;;3.90;52.13;98873.44;10325255;28;20086;-67
2022/03/02 17:57:30;;;;;;;32.63;27.15;;;;;;;3.80;53.36;98870.56;10340201;28;20054;-66
2022/03/02 18:02:35;;;;;;;16.92;11.35;;;;;;;3.70;53.82;98881.00;10328161;28;20129;-64
2022/03/02 18:07:41;;;;;;;8.85;5.57;;;;;;;3.58;55.53;98881.88;10327318;28;20082;-66
2022/03/02 18:12:45;;;;;;;5.88;4.53;;;;;;;3.49;56.79;98872.69;10340775;28;20038;-62
2022/03/02 18:17:49;;;;;;;7.20;4.70;;;;;;;3.30;60.39;98878.41;10352851;28;20121;-63
2022/03/02 18:22:52;;;;;;;5.47;4.30;;;;;;;3.09;62.26;98878.03;10338021;28;20038;-65
2022/03/02 18:27:56;;;;;;;6.30;4.65;;;;;;;2.94;64.38;98871.94;10335963;28;20043;-63
2022/03/02 18:32:59;;;;;;;9.82;8.07;;;;;;;2.85;64.55;98872.56;10334076;28;20046;-68
2022/03/02 18:38:03;;;;;;;7.45;5.18;;;;;;;2.80;66.72;98872.88;10328015;28;20129;-64
2022/03/02 18:43:09;;;;;;;6.68;5.18;;;;;;;2.71;69.83;98871.66;10324301;28;20129;-64
2022/03/02 18:48:12;;;;;;;5.43;4.47;;;;;;;2.60;74.38;98863.50;10331785;28;20054;-60
2022/03/02 18:53:16;;;;;;;5.22;4.38;;;;;;;2.44;76.49;98869.81;10329081;28;20520;-62
2022/03/02 18:58:21;;;;;;;5.88;4.50;;;;;;;2.28;79.57;98861.97;10331280;28;20047;-64
2022/03/02 19:03:24;;;;;;;6.15;4.40;;;;;;;2.09;80.16;98858.78;10327556;28;20439;-62
2022/03/02 19:08:52;;;;;;;5.93;4.63;;;;;;;1.94;82.93;98860.59;10327355;28;20042;-60
2022/03/02 19:13:56;;;;;;;6.68;5.25;;;;;;;1.82;84.15;98870.19;10327277;28;20076;-62
2022/03/02 19:19:00;;;;;;;7.85;5.60;;;;;;;1.67;86.61;98878.13;10329049;28;20556;-61
2022/03/02 19:24:06;;;;;;;8.77;5.30;;;;;;;1.65;87.54;98857.94;10333397;28;20121;-62
2022/03/02 19:29:11;;;;;;;7.13;5.05;;;;;;;1.52;91.41;98865.81;10328668;28;20100;-62
2022/03/02 19:34:14;;;;;;;5.60;5.00;;;;;;;1.40;92.38;98866.56;10341589;28;20133;-64
2022/03/02 19:44:39;;;;;;;9.35;5.70;;;;;;;1.17;96.30;98877.56;10383707;23;20474;-79
2022/03/02 19:49:44;;;;;;;5.97;5.38;;;;;;;1.14;96.87;98860.97;10382614;28;20092;-79
2022/03/02 19:54:49;;;;;;;7.72;5.80;;;;;;;1.09;97.39;98871.88;10374628;28;20045;-79
2022/03/02 19:59:55;;;;;;;7.88;5.90;;;;;;;1.00;98.90;98859.16;10387695;28;20522;-78
2022/03/02 20:04:58;;;;;;;9.80;5.95;;;;;;;0.92;100.00;98873.69;10379498;28;20042;-79
2022/03/02 20:10:03;;;;;;;9.57;6.00;;;;;;;0.86;100.00;98868.78;10386464;28;20057;-79
2022/03/02 20:15:08;;;;;;;6.95;5.55;;;;;;;0.77;100.00;98869.28;10385759;28;20489;-79
2022/03/02 20:20:13;;;;;;;6.60;5.53;;;;;;;0.70;100.00;98867.94;10380809;28;20053;-79
2022/03/02 20:25:21;;;;;;;7.40;6.20;;;;;;;0.60;100.00;98868.47;10384036;28;20494;-79
2022/03/02 20:30:30;;;;;;;7.70;6.00;;;;;;;0.47;100.00;98872.75;10382571;28;20091;-78
2022/03/02 20:35:33;;;;;;;7.75;6.90;;;;;;;0.38;100.00;98868.81;10382580;28;20045;-77
2022/03/02 20:40:42;;;;;;;10.95;5.95;;;;;;;0.33;100.00;98865.56;10383187;28;20045;-78
2022/03/02 20:45:47;;;;;;;10.00;6.15;;;;;;;0.29;100.00;98858.72;10396036;28;20056;-76
2022/03/02 20:50:52;;;;;;;8.63;6.78;;;;;;;0.24;100.00;98858.97;10378125;28;20053;-75
2022/03/02 20:55:55;;;;;;;11.07;6.90;;;;;;;0.17;100.00;98852.31;10386756;28;20084;-75
2022/03/02 21:01:00;;;;;;;8.13;6.45;;;;;;;0.13;100.00;98856.06;10376889;28;20057;-74
2022/03/02 21:06:04;;;;;;;13.98;9.18;;;;;;;0.03;100.00;98855.72;10382234;28;20044;-76
2022/03/02 21:11:08;;;;;;;8.65;6.90;;;;;;;-0.01;100.00;98855.03;10387927;28;20048;-77
2022/03/02 21:16:13;;;;;;;8.88;7.15;;;;;;;-0.06;100.00;98857.06;10390937;28;20125;-75
2022/03/02 21:21:16;;;;;;;10.38;7.35;;;;;;;-0.08;100.00;98850.16;10393120;28;20038;-75
2022/03/02 21:26:19;;;;;;;16.17;10.88;;;;;;;-0.11;100.00;98847.66;10390221;28;20516;-75
2022/03/02 21:31:23;;;;;;;8.57;7.35;;;;;;;-0.14;100.00;98856.63;10392673;28;20045;-75
2022/03/02 21:36:27;;;;;;;11.15;7.43;;;;;;;-0.19;100.00;98841.00;10392759;28;20079;-75
2022/03/02 21:41:30;;;;;;;10.32;7.40;;;;;;;-0.26;100.00;98846.69;10387673;28;20045;-75
2022/03/02 21:46:36;;;;;;;10.38;7.55;;;;;;;-0.36;100.00;98852.50;10392130;28;20064;-76
2022/03/02 21:51:39;;;;;;;9.43;6.53;;;;;;;-0.41;100.00;98848.38;10388014;28;20046;-77
2022/03/02 21:56:41;;;;;;;7.88;6.60;;;;;;;-0.49;100.00;98838.19;10398467;28;20626;-75
2022/03/02 22:01:46;;;;;;;11.85;6.72;;;;;;;-0.56;100.00;98839.47;10392023;28;20052;-75
2022/03/02 22:06:49;;;;;;;8.32;6.15;;;;;;;-0.64;100.00;98835.41;10386353;28;20112;-75
2022/03/02 22:11:52;;;;;;;7.05;5.93;;;;;;;-0.70;100.00;98838.38;10394448;28;20052;-75
2022/03/02 22:16:56;;;;;;;7.55;6.22;;;;;;;-0.77;100.00;98831.72;10379214;28;20053;-75
2022/03/02 22:21:59;;;;;;;10.20;6.25;;;;;;;-0.84;100.00;98830.31;10370976;28;20045;-75
2022/03/02 22:27:02;;;;;;;8.40;6.40;;;;;;;-0.94;100.00;98822.84;10371517;28;20061;-75
2022/03/02 22:32:08;;;;;;;9.32;6.80;;;;;;;-1.01;100.00;98839.97;10368092;28;20544;-76
2022/03/02 22:37:12;;;;;;;7.80;7.00;;;;;;;-1.06;100.00;98841.97;10369020;28;20050;-74
2022/03/02 22:42:15;;;;;;;9.27;7.30;;;;;;;-1.09;100.00;98840.34;10370714;28;20054;-75
2022/03/02 22:47:19;;;;;;;9.35;6.55;;;;;;;-1.11;100.00;98833.41;10379874;28;20046;-76
2022/03/02 22:52:22;;;;;;;8.02;6.82;;;;;;;-1.12;100.00;98834.38;10393018;28;20053;-75
2022/03/02 22:57:25;;;;;;;8.18;6.53;;;;;;;-1.16;100.00;98835.44;10391204;28;20034;-76
2022/03/02 23:02:30;;;;;;;7.15;6.32;;;;;;;-1.22;100.00;98841.03;10384992;28;20486;-75
2022/03/02 23:18:26;;;;;;;10.50;6.53;;;;;;;-1.42;100.00;98829.66;10380427;28;20569;-75
2022/03/02 23:23:29;;;;;;;7.68;5.85;;;;;;;-1.46;100.00;98823.69;10389801;28;20125;-75
2022/03/02 23:28:32;;;;;;;9.63;5.65;;;;;;;-1.49;100.00;98823.81;10387349;28;20542;-76
2022/03/02 23:33:37;;;;;;;7.57;6.30;;;;;;;-1.48;100.00;98830.81;10372871;28;20548;-75
2022/03/02 23:38:40;;;;;;;6.65;5.85;;;;;;;-1.46;100.00;98833.38;10378352;28;20117;-76
2022/03/02 23:43:44;;;;;;;7.63;5.93;;;;;;;-1.50;100.00;98837.13;10372891;28;20054;-76
2022/03/02 23:48:48;;;;;;;7.90;6.63;;;;;;;-1.59;100.00;98828.69;10361952;28;20046;-76
2022/03/02 23:53:51;;;;;;;8.05;7.22;;;;;;;-1.65;100.00;98834.28;10365391;28;20044;-77
2022/03/02 23:58:54;;;;;;;10.88;7.82;;;;;;;-1.77;100.00;98829.59;10365040;28;20057;-76
